Terminal Aerodrome Forecast
Issued by NWS

Home | Current Version | Previous Version | Text Only | Print | Product List | Glossary On
Versions: 1 2 3 4 5 6 7 8 9 10 11 12
000
FTUS44 KOUN 202345
TAFCSM
TAF
KCSM 202345Z 2100/2124 17012KT P6SM VCSH FEW018 OVC080
      TEMPO 2102/2104 5SM -SHRA BR SCT007 BKN018
     FM210800 17008KT 4SM BR BKN007
     FM211400 36009KT P6SM BKN015
     FM211800 36011KT P6SM SCT035=

USA.gov is the U.S. government's official web portal to all federal, state and local government web resources and services.